sensor_id;sensor_type;location;lat;lon;timestamp;temperature;humidity
76384;SHT30;65204;48.606;7.598;2022-11-15T00:00:07;13.07;72.30
76384;SHT30;65204;48.606;7.598;2022-11-15T00:00:38;13.07;72.36
76384;SHT30;65204;48.606;7.598;2022-11-15T00:01:11;13.08;72.40
76384;SHT30;65204;48.606;7.598;2022-11-15T00:01:44;13.07;72.53
76384;SHT30;65204;48.606;7.598;2022-11-15T00:02:14;13.08;72.48
76384;SHT30;65204;48.606;7.598;2022-11-15T00:02:44;13.07;72.50
76384;SHT30;65204;48.606;7.598;2022-11-15T00:03:23;13.07;72.44
76384;SHT30;65204;48.606;7.598;2022-11-15T00:03:54;13.08;72.36
76384;SHT30;65204;48.606;7.598;2022-11-15T00:04:24;13.07;72.38
76384;SHT30;65204;48.606;7.598;2022-11-15T00:04:55;13.07;72.40
76384;SHT30;65204;48.606;7.598;2022-11-15T00:05:25;13.07;72.39
76384;SHT30;65204;48.606;7.598;2022-11-15T00:06:01;13.07;72.30
76384;SHT30;65204;48.606;7.598;2022-11-15T00:06:32;13.10;72.28
76384;SHT30;65204;48.606;7.598;2022-11-15T00:07:02;13.08;72.38
76384;SHT30;65204;48.606;7.598;2022-11-15T00:07:36;13.07;72.31
76384;SHT30;65204;48.606;7.598;2022-11-15T00:08:06;13.07;72.33
76384;SHT30;65204;48.606;7.598;2022-11-15T00:08:37;13.06;72.28
76384;SHT30;65204;48.606;7.598;2022-11-15T00:09:07;13.07;72.32
76384;SHT30;65204;48.606;7.598;2022-11-15T00:09:37;13.08;72.58
76384;SHT30;65204;48.606;7.598;2022-11-15T00:10:09;13.07;72.62
76384;SHT30;65204;48.606;7.598;2022-11-15T00:10:39;13.07;72.46
76384;SHT30;65204;48.606;7.598;2022-11-15T00:11:11;13.08;72.58
76384;SHT30;65204;48.606;7.598;2022-11-15T00:11:42;13.07;72.57
76384;SHT30;65204;48.606;7.598;2022-11-15T00:12:13;13.08;72.56
76384;SHT30;65204;48.606;7.598;2022-11-15T00:12:43;13.10;72.29
76384;SHT30;65204;48.606;7.598;2022-11-15T00:13:14;13.07;71.97
76384;SHT30;65204;48.606;7.598;2022-11-15T00:13:44;13.07;71.87
76384;SHT30;65204;48.606;7.598;2022-11-15T00:14:15;13.10;71.88
76384;SHT30;65204;48.606;7.598;2022-11-15T00:14:45;13.08;71.88
76384;SHT30;65204;48.606;7.598;2022-11-15T00:15:15;13.10;71.89
76384;SHT30;65204;48.606;7.598;2022-11-15T00:15:46;13.11;72.16
76384;SHT30;65204;48.606;7.598;2022-11-15T00:16:17;13.13;72.25
76384;SHT30;65204;48.606;7.598;2022-11-15T00:16:47;13.11;72.44
76384;SHT30;65204;48.606;7.598;2022-11-15T00:17:17;13.10;72.16
76384;SHT30;65204;48.606;7.598;2022-11-15T00:17:49;13.10;71.97
76384;SHT30;65204;48.606;7.598;2022-11-15T00:18:19;13.11;72.09
76384;SHT30;65204;48.606;7.598;2022-11-15T00:18:50;13.11;72.38
76384;SHT30;65204;48.606;7.598;2022-11-15T00:19:21;13.14;72.51
76384;SHT30;65204;48.606;7.598;2022-11-15T00:19:51;13.13;72.52
76384;SHT30;65204;48.606;7.598;2022-11-15T00:20:22;13.13;72.51
76384;SHT30;65204;48.606;7.598;2022-11-15T00:20:52;13.14;72.47
76384;SHT30;65204;48.606;7.598;2022-11-15T00:21:23;13.10;72.45
76384;SHT30;65204;48.606;7.598;2022-11-15T00:21:54;13.11;72.52
76384;SHT30;65204;48.606;7.598;2022-11-15T00:22:32;13.13;72.47
76384;SHT30;65204;48.606;7.598;2022-11-15T00:23:03;13.11;72.49
76384;SHT30;65204;48.606;7.598;2022-11-15T00:23:34;13.10;72.48
76384;SHT30;65204;48.606;7.598;2022-11-15T00:24:05;13.11;72.35
76384;SHT30;65204;48.606;7.598;2022-11-15T00:24:35;13.13;72.39
76384;SHT30;65204;48.606;7.598;2022-11-15T00:25:06;13.11;72.50
76384;SHT30;65204;48.606;7.598;2022-11-15T00:25:36;13.11;72.58
76384;SHT30;65204;48.606;7.598;2022-11-15T00:26:11;13.10;72.52
76384;SHT30;65204;48.606;7.598;2022-11-15T00:26:41;13.08;72.65
76384;SHT30;65204;48.606;7.598;2022-11-15T00:27:12;13.10;72.27
76384;SHT30;65204;48.606;7.598;2022-11-15T00:27:42;13.08;72.29
76384;SHT30;65204;48.606;7.598;2022-11-15T00:28:12;13.13;72.19
76384;SHT30;65204;48.606;7.598;2022-11-15T00:28:43;13.10;72.12
76384;SHT30;65204;48.606;7.598;2022-11-15T00:29:13;13.11;72.24
76384;SHT30;65204;48.606;7.598;2022-11-15T00:29:44;13.10;72.33
76384;SHT30;65204;48.606;7.598;2022-11-15T00:30:14;13.10;72.38
76384;SHT30;65204;48.606;7.598;2022-11-15T00:30:45;13.11;72.49
76384;SHT30;65204;48.606;7.598;2022-11-15T00:31:15;13.10;72.51
76384;SHT30;65204;48.606;7.598;2022-11-15T00:31:46;13.13;72.41
76384;SHT30;65204;48.606;7.598;2022-11-15T00:32:16;13.13;72.43
76384;SHT30;65204;48.606;7.598;2022-11-15T00:32:47;13.11;72.39
76384;SHT30;65204;48.606;7.598;2022-11-15T00:33:17;13.13;72.45
76384;SHT30;65204;48.606;7.598;2022-11-15T00:33:48;13.13;72.50
76384;SHT30;65204;48.606;7.598;2022-11-15T00:34:21;13.14;72.58
76384;SHT30;65204;48.606;7.598;2022-11-15T00:34:51;13.14;72.54
76384;SHT30;65204;48.606;7.598;2022-11-15T00:35:22;13.14;72.38
76384;SHT30;65204;48.606;7.598;2022-11-15T00:35:52;13.11;72.21
76384;SHT30;65204;48.606;7.598;2022-11-15T00:36:22;13.14;72.05
76384;SHT30;65204;48.606;7.598;2022-11-15T00:36:53;13.15;72.02
76384;SHT30;65204;48.606;7.598;2022-11-15T00:37:23;13.14;72.04
76384;SHT30;65204;48.606;7.598;2022-11-15T00:37:53;13.14;71.95
76384;SHT30;65204;48.606;7.598;2022-11-15T00:38:24;13.15;71.86
76384;SHT30;65204;48.606;7.598;2022-11-15T00:38:54;13.17;71.86
76384;SHT30;65204;48.606;7.598;2022-11-15T00:39:24;13.20;71.89
76384;SHT30;65204;48.606;7.598;2022-11-15T00:39:55;13.15;71.84
76384;SHT30;65204;48.606;7.598;2022-11-15T00:40:25;13.18;72.06
76384;SHT30;65204;48.606;7.598;2022-11-15T00:40:56;13.18;72.14
76384;SHT30;65204;48.606;7.598;2022-11-15T00:41:26;13.20;72.30
76384;SHT30;65204;48.606;7.598;2022-11-15T00:41:56;13.20;72.34
76384;SHT30;65204;48.606;7.598;2022-11-15T00:42:27;13.18;72.40
76384;SHT30;65204;48.606;7.598;2022-11-15T00:42:57;13.18;72.47
76384;SHT30;65204;48.606;7.598;2022-11-15T00:43:28;13.20;72.41
76384;SHT30;65204;48.606;7.598;2022-11-15T00:43:58;13.20;72.31
76384;SHT30;65204;48.606;7.598;2022-11-15T00:44:29;13.18;72.41
76384;SHT30;65204;48.606;7.598;2022-11-15T00:44:59;13.18;72.29
76384;SHT30;65204;48.606;7.598;2022-11-15T00:45:29;13.17;72.25
76384;SHT30;65204;48.606;7.598;2022-11-15T00:46:00;13.21;72.13
76384;SHT30;65204;48.606;7.598;2022-11-15T00:46:32;13.21;71.81
76384;SHT30;65204;48.606;7.598;2022-11-15T00:47:03;13.20;71.76
76384;SHT30;65204;48.606;7.598;2022-11-15T00:47:33;13.20;71.67
76384;SHT30;65204;48.606;7.598;2022-11-15T00:48:04;13.21;71.68
76384;SHT30;65204;48.606;7.598;2022-11-15T00:48:34;13.21;71.77
76384;SHT30;65204;48.606;7.598;2022-11-15T00:49:05;13.23;71.73
76384;SHT30;65204;48.606;7.598;2022-11-15T00:49:35;13.23;71.85
76384;SHT30;65204;48.606;7.598;2022-11-15T00:50:06;13.23;71.90
76384;SHT30;65204;48.606;7.598;2022-11-15T00:50:37;13.21;71.92
76384;SHT30;65204;48.606;7.598;2022-11-15T00:51:07;13.21;72.00
76384;SHT30;65204;48.606;7.598;2022-11-15T00:51:38;13.21;72.04
76384;SHT30;65204;48.606;7.598;2022-11-15T00:52:08;13.21;72.04
76384;SHT30;65204;48.606;7.598;2022-11-15T00:52:39;13.23;72.07
76384;SHT30;65204;48.606;7.598;2022-11-15T00:53:09;13.21;72.23
76384;SHT30;65204;48.606;7.598;2022-11-15T00:53:40;13.23;72.25
76384;SHT30;65204;48.606;7.598;2022-11-15T00:54:10;13.23;72.43
76384;SHT30;65204;48.606;7.598;2022-11-15T00:54:40;13.23;72.59
76384;SHT30;65204;48.606;7.598;2022-11-15T00:55:15;13.21;72.67
76384;SHT30;65204;48.606;7.598;2022-11-15T00:55:46;13.23;72.68
76384;SHT30;65204;48.606;7.598;2022-11-15T00:56:17;13.18;72.69
76384;SHT30;65204;48.606;7.598;2022-11-15T00:56:47;13.20;72.76
76384;SHT30;65204;48.606;7.598;2022-11-15T00:57:17;13.18;72.74
76384;SHT30;65204;48.606;7.598;2022-11-15T00:57:48;13.20;72.62
76384;SHT30;65204;48.606;7.598;2022-11-15T00:58:18;13.15;72.64
76384;SHT30;65204;48.606;7.598;2022-11-15T00:58:49;13.17;72.60
76384;SHT30;65204;48.606;7.598;2022-11-15T00:59:19;13.14;72.62
76384;SHT30;65204;48.606;7.598;2022-11-15T00:59:49;13.15;72.47
76384;SHT30;65204;48.606;7.598;2022-11-15T01:00:20;13.14;72.50
76384;SHT30;65204;48.606;7.598;2022-11-15T01:00:50;13.13;72.59
76384;SHT30;65204;48.606;7.598;2022-11-15T01:01:21;13.11;72.72
76384;SHT30;65204;48.606;7.598;2022-11-15T01:01:51;13.11;72.84
76384;SHT30;65204;48.606;7.598;2022-11-15T01:02:21;13.10;72.72
76384;SHT30;65204;48.606;7.598;2022-11-15T01:02:52;13.10;72.65
76384;SHT30;65204;48.606;7.598;2022-11-15T01:03:22;13.11;72.62
76384;SHT30;65204;48.606;7.598;2022-11-15T01:03:52;13.08;72.59
76384;SHT30;65204;48.606;7.598;2022-11-15T01:04:23;13.06;72.49
76384;SHT30;65204;48.606;7.598;2022-11-15T01:04:53;13.07;72.30
76384;SHT30;65204;48.606;7.598;2022-11-15T01:05:24;13.07;72.19
76384;SHT30;65204;48.606;7.598;2022-11-15T01:05:59;13.04;72.24
76384;SHT30;65204;48.606;7.598;2022-11-15T01:06:29;13.08;72.11
76384;SHT30;65204;48.606;7.598;2022-11-15T01:07:00;13.11;71.94
76384;SHT30;65204;48.606;7.598;2022-11-15T01:07:30;13.07;72.03
76384;SHT30;65204;48.606;7.598;2022-11-15T01:08:00;13.07;72.15
76384;SHT30;65204;48.606;7.598;2022-11-15T01:08:31;13.07;72.13
76384;SHT30;65204;48.606;7.598;2022-11-15T01:09:02;13.03;71.99
76384;SHT30;65204;48.606;7.598;2022-11-15T01:09:32;13.06;71.94
76384;SHT30;65204;48.606;7.598;2022-11-15T01:10:04;13.04;71.87
76384;SHT30;65204;48.606;7.598;2022-11-15T01:10:34;13.06;71.95
76384;SHT30;65204;48.606;7.598;2022-11-15T01:11:09;13.04;72.04
76384;SHT30;65204;48.606;7.598;2022-11-15T01:11:40;13.02;72.33
76384;SHT30;65204;48.606;7.598;2022-11-15T01:12:10;13.04;72.63
76384;SHT30;65204;48.606;7.598;2022-11-15T01:12:41;13.03;72.64
76384;SHT30;65204;48.606;7.598;2022-11-15T01:13:11;13.04;72.46
76384;SHT30;65204;48.606;7.598;2022-11-15T01:13:42;13.00;72.44
76384;SHT30;65204;48.606;7.598;2022-11-15T01:14:13;13.03;72.47
76384;SHT30;65204;48.606;7.598;2022-11-15T01:14:43;13.03;72.68
76384;SHT30;65204;48.606;7.598;2022-11-15T01:15:13;13.04;72.23
76384;SHT30;65204;48.606;7.598;2022-11-15T01:15:44;13.03;72.17
76384;SHT30;65204;48.606;7.598;2022-11-15T01:16:17;13.04;72.26
76384;SHT30;65204;48.606;7.598;2022-11-15T01:16:48;13.07;72.32
76384;SHT30;65204;48.606;7.598;2022-11-15T01:17:19;13.04;72.77
76384;SHT30;65204;48.606;7.598;2022-11-15T01:17:49;13.06;72.97
76384;SHT30;65204;48.606;7.598;2022-11-15T01:18:20;13.03;73.00
76384;SHT30;65204;48.606;7.598;2022-11-15T01:18:50;13.03;73.00
76384;SHT30;65204;48.606;7.598;2022-11-15T01:19:20;13.06;72.96
76384;SHT30;65204;48.606;7.598;2022-11-15T01:19:51;13.04;73.30
76384;SHT30;65204;48.606;7.598;2022-11-15T01:20:21;13.03;73.25
76384;SHT30;65204;48.606;7.598;2022-11-15T01:20:51;13.02;73.14
76384;SHT30;65204;48.606;7.598;2022-11-15T01:21:22;13.04;73.05
76384;SHT30;65204;48.606;7.598;2022-11-15T01:21:52;13.03;73.16
76384;SHT30;65204;48.606;7.598;2022-11-15T01:22:23;13.03;73.54
76384;SHT30;65204;48.606;7.598;2022-11-15T01:22:53;13.02;73.62
76384;SHT30;65204;48.606;7.598;2022-11-15T01:23:24;13.02;73.40
76384;SHT30;65204;48.606;7.598;2022-11-15T01:23:55;13.02;73.31
76384;SHT30;65204;48.606;7.598;2022-11-15T01:24:26;13.03;73.36
76384;SHT30;65204;48.606;7.598;2022-11-15T01:24:57;13.03;73.13
76384;SHT30;65204;48.606;7.598;2022-11-15T01:25:28;13.02;73.10
76384;SHT30;65204;48.606;7.598;2022-11-15T01:26:02;13.03;73.08
76384;SHT30;65204;48.606;7.598;2022-11-15T01:26:33;13.02;73.13
76384;SHT30;65204;48.606;7.598;2022-11-15T01:27:04;13.04;73.15
76384;SHT30;65204;48.606;7.598;2022-11-15T01:27:34;13.04;73.14
76384;SHT30;65204;48.606;7.598;2022-11-15T01:28:05;13.04;73.07
76384;SHT30;65204;48.606;7.598;2022-11-15T01:28:37;13.03;73.18
76384;SHT30;65204;48.606;7.598;2022-11-15T01:29:07;13.03;73.36
76384;SHT30;65204;48.606;7.598;2022-11-15T01:29:38;13.04;73.29
76384;SHT30;65204;48.606;7.598;2022-11-15T01:30:08;13.04;73.27
76384;SHT30;65204;48.606;7.598;2022-11-15T01:30:39;13.04;73.21
76384;SHT30;65204;48.606;7.598;2022-11-15T01:31:14;13.06;73.24
76384;SHT30;65204;48.606;7.598;2022-11-15T01:31:45;13.04;73.31
76384;SHT30;65204;48.606;7.598;2022-11-15T01:32:15;13.02;73.30
76384;SHT30;65204;48.606;7.598;2022-11-15T01:32:46;13.02;73.35
76384;SHT30;65204;48.606;7.598;2022-11-15T01:33:16;13.04;73.31
76384;SHT30;65204;48.606;7.598;2022-11-15T01:33:47;13.04;73.54
76384;SHT30;65204;48.606;7.598;2022-11-15T01:34:18;13.04;73.59
76384;SHT30;65204;48.606;7.598;2022-11-15T01:34:48;13.04;73.50
76384;SHT30;65204;48.606;7.598;2022-11-15T01:35:20;13.04;73.36
76384;SHT30;65204;48.606;7.598;2022-11-15T01:35:51;13.06;73.38
76384;SHT30;65204;48.606;7.598;2022-11-15T01:36:22;13.06;73.38
76384;SHT30;65204;48.606;7.598;2022-11-15T01:36:52;13.04;73.17
76384;SHT30;65204;48.606;7.598;2022-11-15T01:37:23;13.04;73.10
76384;SHT30;65204;48.606;7.598;2022-11-15T01:37:53;13.03;73.04
76384;SHT30;65204;48.606;7.598;2022-11-15T01:38:23;13.03;73.07
76384;SHT30;65204;48.606;7.598;2022-11-15T01:38:58;13.06;73.08
76384;SHT30;65204;48.606;7.598;2022-11-15T01:39:28;13.07;73.07
76384;SHT30;65204;48.606;7.598;2022-11-15T01:39:59;13.07;73.10
76384;SHT30;65204;48.606;7.598;2022-11-15T01:40:29;13.07;73.05
76384;SHT30;65204;48.606;7.598;2022-11-15T01:41:00;13.07;72.99
76384;SHT30;65204;48.606;7.598;2022-11-15T01:41:32;13.07;72.78
76384;SHT30;65204;48.606;7.598;2022-11-15T01:42:03;13.10;72.70
76384;SHT30;65204;48.606;7.598;2022-11-15T01:42:33;13.10;72.64
76384;SHT30;65204;48.606;7.598;2022-11-15T01:43:23;13.13;72.59
76384;SHT30;65204;48.606;7.598;2022-11-15T01:45:13;13.15;72.36
76384;SHT30;65204;48.606;7.598;2022-11-15T01:45:46;13.15;72.37
76384;SHT30;65204;48.606;7.598;2022-11-15T01:46:49;13.18;72.27
76384;SHT30;65204;48.606;7.598;2022-11-15T01:47:24;13.18;72.23
76384;SHT30;65204;48.606;7.598;2022-11-15T01:47:55;13.17;72.20
76384;SHT30;65204;48.606;7.598;2022-11-15T01:48:32;13.15;72.22
76384;SHT30;65204;48.606;7.598;2022-11-15T01:49:06;13.18;72.22
76384;SHT30;65204;48.606;7.598;2022-11-15T01:50:00;13.15;72.05
76384;SHT30;65204;48.606;7.598;2022-11-15T01:50:32;13.20;71.94
76384;SHT30;65204;48.606;7.598;2022-11-15T01:51:07;13.18;71.89
76384;SHT30;65204;48.606;7.598;2022-11-15T01:51:39;13.18;71.92
76384;SHT30;65204;48.606;7.598;2022-11-15T01:52:13;13.21;71.97
76384;SHT30;65204;48.606;7.598;2022-11-15T01:52:45;13.18;71.94
76384;SHT30;65204;48.606;7.598;2022-11-15T01:53:17;13.20;71.97
76384;SHT30;65204;48.606;7.598;2022-11-15T01:53:52;13.20;72.16
76384;SHT30;65204;48.606;7.598;2022-11-15T01:54:24;13.20;72.17
76384;SHT30;65204;48.606;7.598;2022-11-15T01:55:36;13.20;72.49
76384;SHT30;65204;48.606;7.598;2022-11-15T01:56:09;13.21;72.76
76384;SHT30;65204;48.606;7.598;2022-11-15T01:56:54;13.21;72.88
76384;SHT30;65204;48.606;7.598;2022-11-15T01:57:26;13.17;73.19
76384;SHT30;65204;48.606;7.598;2022-11-15T01:58:00;13.18;73.41
76384;SHT30;65204;48.606;7.598;2022-11-15T01:58:32;13.17;73.50
76384;SHT30;65204;48.606;7.598;2022-11-15T01:59:04;13.15;73.71
76384;SHT30;65204;48.606;7.598;2022-11-15T01:59:37;13.15;73.63
76384;SHT30;65204;48.606;7.598;2022-11-15T02:00:11;13.15;73.64
76384;SHT30;65204;48.606;7.598;2022-11-15T02:00:41;13.13;73.60
76384;SHT30;65204;48.606;7.598;2022-11-15T02:01:12;13.13;73.57
76384;SHT30;65204;48.606;7.598;2022-11-15T02:01:43;13.13;73.60
76384;SHT30;65204;48.606;7.598;2022-11-15T02:02:14;13.10;73.55
76384;SHT30;65204;48.606;7.598;2022-11-15T02:02:45;13.11;73.59
76384;SHT30;65204;48.606;7.598;2022-11-15T02:03:16;13.08;73.58
76384;SHT30;65204;48.606;7.598;2022-11-15T02:03:58;13.06;73.65
76384;SHT30;65204;48.606;7.598;2022-11-15T02:04:32;13.11;73.64
76384;SHT30;65204;48.606;7.598;2022-11-15T02:05:03;13.11;73.61
76384;SHT30;65204;48.606;7.598;2022-11-15T02:05:35;13.11;73.62
76384;SHT30;65204;48.606;7.598;2022-11-15T02:06:06;13.08;73.67
76384;SHT30;65204;48.606;7.598;2022-11-15T02:06:37;13.10;73.66
76384;SHT30;65204;48.606;7.598;2022-11-15T02:07:10;13.07;73.64
76384;SHT30;65204;48.606;7.598;2022-11-15T02:07:40;13.10;73.68
76384;SHT30;65204;48.606;7.598;2022-11-15T02:08:11;13.10;73.74
76384;SHT30;65204;48.606;7.598;2022-11-15T02:08:50;13.10;73.63
76384;SHT30;65204;48.606;7.598;2022-11-15T02:09:21;13.11;73.66
76384;SHT30;65204;48.606;7.598;2022-11-15T02:09:51;13.10;73.66
76384;SHT30;65204;48.606;7.598;2022-11-15T02:10:23;13.07;73.70
76384;SHT30;65204;48.606;7.598;2022-11-15T02:10:54;13.08;73.63
76384;SHT30;65204;48.606;7.598;2022-11-15T02:11:24;13.10;73.60
76384;SHT30;65204;48.606;7.598;2022-11-15T02:11:55;13.07;73.68
76384;SHT30;65204;48.606;7.598;2022-11-15T02:12:26;13.07;73.69
76384;SHT30;65204;48.606;7.598;2022-11-15T02:12:58;13.08;73.73
76384;SHT30;65204;48.606;7.598;2022-11-15T02:13:30;13.08;73.68
76384;SHT30;65204;48.606;7.598;2022-11-15T02:14:00;13.08;73.68
76384;SHT30;65204;48.606;7.598;2022-11-15T02:14:32;13.08;73.66
76384;SHT30;65204;48.606;7.598;2022-11-15T02:15:03;13.08;73.69
76384;SHT30;65204;48.606;7.598;2022-11-15T02:15:42;13.08;73.77
76384;SHT30;65204;48.606;7.598;2022-11-15T02:18:34;13.10;73.62
76384;SHT30;65204;48.606;7.598;2022-11-15T02:22:21;13.10;73.43
76384;SHT30;65204;48.606;7.598;2022-11-15T02:23:56;13.07;73.43
76384;SHT30;65204;48.606;7.598;2022-11-15T02:25:51;13.04;73.74
76384;SHT30;65204;48.606;7.598;2022-11-15T02:30:40;12.99;73.36
76384;SHT30;65204;48.606;7.598;2022-11-15T02:31:18;12.96;73.36
76384;SHT30;65204;48.606;7.598;2022-11-15T02:32:42;12.97;73.22
76384;SHT30;65204;48.606;7.598;2022-11-15T02:36:38;12.97;73.72
76384;SHT30;65204;48.606;7.598;2022-11-15T02:37:20;13.00;73.79
76384;SHT30;65204;48.606;7.598;2022-11-15T02:39:25;12.99;74.16
76384;SHT30;65204;48.606;7.598;2022-11-15T02:40:13;12.99;74.19
76384;SHT30;65204;48.606;7.598;2022-11-15T02:40:52;12.97;74.21
76384;SHT30;65204;48.606;7.598;2022-11-15T02:41:31;12.97;74.20
76384;SHT30;65204;48.606;7.598;2022-11-15T02:42:16;12.97;74.12
76384;SHT30;65204;48.606;7.598;2022-11-15T02:43:11;12.97;74.19
76384;SHT30;65204;48.606;7.598;2022-11-15T02:44:07;12.96;73.80
76384;SHT30;65204;48.606;7.598;2022-11-15T02:44:43;12.96;73.86
76384;SHT30;65204;48.606;7.598;2022-11-15T02:45:23;12.93;74.18
76384;SHT30;65204;48.606;7.598;2022-11-15T02:46:01;12.94;74.34
76384;SHT30;65204;48.606;7.598;2022-11-15T02:46:44;12.93;74.40
76384;SHT30;65204;48.606;7.598;2022-11-15T02:47:39;12.93;74.62
76384;SHT30;65204;48.606;7.598;2022-11-15T02:48:13;12.94;74.35
76384;SHT30;65204;48.606;7.598;2022-11-15T02:48:45;12.92;74.36
76384;SHT30;65204;48.606;7.598;2022-11-15T02:49:16;12.92;74.61
76384;SHT30;65204;48.606;7.598;2022-11-15T02:49:50;12.90;74.54
76384;SHT30;65204;48.606;7.598;2022-11-15T02:50:25;12.92;74.51
76384;SHT30;65204;48.606;7.598;2022-11-15T02:50:58;12.93;74.50
76384;SHT30;65204;48.606;7.598;2022-11-15T02:51:28;12.94;74.64
76384;SHT30;65204;48.606;7.598;2022-11-15T02:51:59;12.92;74.57
76384;SHT30;65204;48.606;7.598;2022-11-15T02:52:29;12.93;74.20
76384;SHT30;65204;48.606;7.598;2022-11-15T02:53:00;12.92;73.95
76384;SHT30;65204;48.606;7.598;2022-11-15T02:53:30;12.92;73.78
76384;SHT30;65204;48.606;7.598;2022-11-15T02:54:00;12.92;74.45
76384;SHT30;65204;48.606;7.598;2022-11-15T02:54:33;12.92;74.95
76384;SHT30;65204;48.606;7.598;2022-11-15T02:55:04;12.93;75.06
76384;SHT30;65204;48.606;7.598;2022-11-15T02:55:40;12.93;74.96
76384;SHT30;65204;48.606;7.598;2022-11-15T02:56:11;12.94;74.87
76384;SHT30;65204;48.606;7.598;2022-11-15T02:56:44;12.93;74.82
76384;SHT30;65204;48.606;7.598;2022-11-15T02:57:18;12.96;74.78
76384;SHT30;65204;48.606;7.598;2022-11-15T02:57:52;12.94;74.57
76384;SHT30;65204;48.606;7.598;2022-11-15T03:00:12;12.96;74.51
76384;SHT30;65204;48.606;7.598;2022-11-15T03:02:09;12.94;74.69
76384;SHT30;65204;48.606;7.598;2022-11-15T03:03:15;12.96;74.72
76384;SHT30;65204;48.606;7.598;2022-11-15T03:04:56;12.93;74.83
76384;SHT30;65204;48.606;7.598;2022-11-15T03:06:36;12.93;74.71
76384;SHT30;65204;48.606;7.598;2022-11-15T03:07:17;12.92;74.78
76384;SHT30;65204;48.606;7.598;2022-11-15T03:08:44;12.92;74.80
76384;SHT30;65204;48.606;7.598;2022-11-15T03:11:00;12.89;74.94
76384;SHT30;65204;48.606;7.598;2022-11-15T03:11:39;12.90;75.10
76384;SHT30;65204;48.606;7.598;2022-11-15T03:12:36;12.89;75.20
76384;SHT30;65204;48.606;7.598;2022-11-15T03:13:29;12.89;75.18
76384;SHT30;65204;48.606;7.598;2022-11-15T03:14:59;12.89;75.10
76384;SHT30;65204;48.606;7.598;2022-11-15T03:15:34;12.90;75.20
76384;SHT30;65204;48.606;7.598;2022-11-15T03:16:20;12.92;75.13
76384;SHT30;65204;48.606;7.598;2022-11-15T03:17:17;12.89;75.03
76384;SHT30;65204;48.606;7.598;2022-11-15T03:17:54;12.90;75.01
76384;SHT30;65204;48.606;7.598;2022-11-15T03:18:50;12.89;74.99
76384;SHT30;65204;48.606;7.598;2022-11-15T03:19:38;12.93;74.90
76384;SHT30;65204;48.606;7.598;2022-11-15T03:20:11;12.90;74.90
76384;SHT30;65204;48.606;7.598;2022-11-15T03:20:44;12.89;74.90
76384;SHT30;65204;48.606;7.598;2022-11-15T03:21:18;12.93;75.06
76384;SHT30;65204;48.606;7.598;2022-11-15T03:21:51;12.92;75.10
76384;SHT30;65204;48.606;7.598;2022-11-15T03:22:24;12.93;75.03
76384;SHT30;65204;48.606;7.598;2022-11-15T03:23:01;12.90;74.94
76384;SHT30;65204;48.606;7.598;2022-11-15T03:23:33;12.89;74.85
76384;SHT30;65204;48.606;7.598;2022-11-15T03:24:06;12.90;74.79
76384;SHT30;65204;48.606;7.598;2022-11-15T03:24:38;12.92;74.76
76384;SHT30;65204;48.606;7.598;2022-11-15T03:25:13;12.92;74.73
76384;SHT30;65204;48.606;7.598;2022-11-15T03:25:48;12.92;74.80
76384;SHT30;65204;48.606;7.598;2022-11-15T03:26:23;12.93;74.79
76384;SHT30;65204;48.606;7.598;2022-11-15T03:26:56;12.93;74.67
76384;SHT30;65204;48.606;7.598;2022-11-15T03:27:35;12.94;74.42
76384;SHT30;65204;48.606;7.598;2022-11-15T03:28:10;12.94;74.07
76384;SHT30;65204;48.606;7.598;2022-11-15T03:28:43;12.94;74.24
76384;SHT30;65204;48.606;7.598;2022-11-15T03:29:22;12.97;74.30
76384;SHT30;65204;48.606;7.598;2022-11-15T03:30:00;12.96;74.54
76384;SHT30;65204;48.606;7.598;2022-11-15T03:30:32;12.97;74.41
76384;SHT30;65204;48.606;7.598;2022-11-15T03:31:05;12.97;74.50
76384;SHT30;65204;48.606;7.598;2022-11-15T03:32:12;12.99;74.30
76384;SHT30;65204;48.606;7.598;2022-11-15T03:32:51;12.97;74.36
76384;SHT30;65204;48.606;7.598;2022-11-15T03:33:24;12.97;74.39
76384;SHT30;65204;48.606;7.598;2022-11-15T03:33:57;12.97;74.39
76384;SHT30;65204;48.606;7.598;2022-11-15T03:34:52;12.94;74.43
76384;SHT30;65204;48.606;7.598;2022-11-15T03:35:25;12.94;74.55
76384;SHT30;65204;48.606;7.598;2022-11-15T03:35:57;12.93;74.48
76384;SHT30;65204;48.606;7.598;2022-11-15T03:36:29;12.93;74.47
76384;SHT30;65204;48.606;7.598;2022-11-15T03:37:01;12.93;74.45
76384;SHT30;65204;48.606;7.598;2022-11-15T03:37:57;12.93;74.13
76384;SHT30;65204;48.606;7.598;2022-11-15T03:38:31;12.92;74.16
76384;SHT30;65204;48.606;7.598;2022-11-15T03:39:06;12.90;74.36
76384;SHT30;65204;48.606;7.598;2022-11-15T03:39:38;12.90;74.43
76384;SHT30;65204;48.606;7.598;2022-11-15T03:40:09;12.92;74.44
76384;SHT30;65204;48.606;7.598;2022-11-15T03:40:44;12.90;74.46
76384;SHT30;65204;48.606;7.598;2022-11-15T03:41:25;12.92;74.35
76384;SHT30;65204;48.606;7.598;2022-11-15T03:42:10;12.93;74.43
76384;SHT30;65204;48.606;7.598;2022-11-15T03:43:53;12.93;74.50
76384;SHT30;65204;48.606;7.598;2022-11-15T03:45:31;12.93;74.24
76384;SHT30;65204;48.606;7.598;2022-11-15T03:46:48;12.93;74.04
76384;SHT30;65204;48.606;7.598;2022-11-15T03:47:42;12.94;74.07
76384;SHT30;65204;48.606;7.598;2022-11-15T03:48:26;12.96;73.95
76384;SHT30;65204;48.606;7.598;2022-11-15T03:49:07;12.94;74.03
76384;SHT30;65204;48.606;7.598;2022-11-15T03:49:43;12.93;74.04
76384;SHT30;65204;48.606;7.598;2022-11-15T03:50:17;12.94;74.15
76384;SHT30;65204;48.606;7.598;2022-11-15T03:50:48;12.94;74.15
76384;SHT30;65204;48.606;7.598;2022-11-15T03:51:19;12.93;74.12
76384;SHT30;65204;48.606;7.598;2022-11-15T03:51:50;12.94;74.11
76384;SHT30;65204;48.606;7.598;2022-11-15T03:52:21;12.93;74.02
76384;SHT30;65204;48.606;7.598;2022-11-15T03:52:54;12.94;73.95
76384;SHT30;65204;48.606;7.598;2022-11-15T03:53:25;12.94;73.87
76384;SHT30;65204;48.606;7.598;2022-11-15T03:53:55;12.97;73.81
76384;SHT30;65204;48.606;7.598;2022-11-15T03:54:25;12.96;73.83
76384;SHT30;65204;48.606;7.598;2022-11-15T03:54:56;12.96;73.78
76384;SHT30;65204;48.606;7.598;2022-11-15T03:55:26;12.97;73.79
76384;SHT30;65204;48.606;7.598;2022-11-15T03:55:57;12.97;73.79
76384;SHT30;65204;48.606;7.598;2022-11-15T03:56:27;12.97;73.81
76384;SHT30;65204;48.606;7.598;2022-11-15T03:56:58;12.96;73.82
76384;SHT30;65204;48.606;7.598;2022-11-15T03:57:28;13.02;73.84
76384;SHT30;65204;48.606;7.598;2022-11-15T03:58:00;13.00;73.85
76384;SHT30;65204;48.606;7.598;2022-11-15T03:58:31;12.99;73.95
76384;SHT30;65204;48.606;7.598;2022-11-15T03:59:01;12.99;74.03
76384;SHT30;65204;48.606;7.598;2022-11-15T03:59:31;13.02;73.98
76384;SHT30;65204;48.606;7.598;2022-11-15T04:00:03;13.00;73.95
76384;SHT30;65204;48.606;7.598;2022-11-15T04:00:34;13.02;74.00
76384;SHT30;65204;48.606;7.598;2022-11-15T04:01:04;13.03;74.04